sensor_id;sensor_type;location;lat;lon;timestamp;temperature;humidity
7576;DHT22;3829;50.798;4.358;2024-03-06T00:01:16;7.30;99.90
7576;DHT22;3829;50.798;4.358;2024-03-06T00:03:41;7.30;99.90
7576;DHT22;3829;50.798;4.358;2024-03-06T00:06:07;7.30;99.90
7576;DHT22;3829;50.798;4.358;2024-03-06T00:08:33;7.30;99.90
7576;DHT22;3829;50.798;4.358;2024-03-06T00:10:58;7.30;99.90
7576;DHT22;3829;50.798;4.358;2024-03-06T00:13:24;7.30;99.90
7576;DHT22;3829;50.798;4.358;2024-03-06T00:15:49;7.30;99.90
7576;DHT22;3829;50.798;4.358;2024-03-06T00:18:15;7.30;99.90
7576;DHT22;3829;50.798;4.358;2024-03-06T00:20:40;7.30;99.90
7576;DHT22;3829;50.798;4.358;2024-03-06T00:23:07;7.20;99.90
7576;DHT22;3829;50.798;4.358;2024-03-06T00:25:33;7.10;99.90
7576;DHT22;3829;50.798;4.358;2024-03-06T00:27:59;7.00;99.90
7576;DHT22;3829;50.798;4.358;2024-03-06T00:30:25;7.00;99.90
7576;DHT22;3829;50.798;4.358;2024-03-06T00:32:51;7.00;99.90
7576;DHT22;3829;50.798;4.358;2024-03-06T00:35:16;6.90;99.90
7576;DHT22;3829;50.798;4.358;2024-03-06T00:37:42;6.90;99.90
7576;DHT22;3829;50.798;4.358;2024-03-06T00:40:08;6.80;99.90
7576;DHT22;3829;50.798;4.358;2024-03-06T00:42:34;6.70;99.90
7576;DHT22;3829;50.798;4.358;2024-03-06T00:45:00;6.70;99.90
7576;DHT22;3829;50.798;4.358;2024-03-06T00:47:27;6.70;99.90
7576;DHT22;3829;50.798;4.358;2024-03-06T00:49:53;6.60;99.90
7576;DHT22;3829;50.798;4.358;2024-03-06T00:52:18;6.60;99.90
7576;DHT22;3829;50.798;4.358;2024-03-06T00:54:44;6.40;99.90
7576;DHT22;3829;50.798;4.358;2024-03-06T00:57:10;6.50;99.90
7576;DHT22;3829;50.798;4.358;2024-03-06T00:59:35;6.60;99.90
7576;DHT22;3829;50.798;4.358;2024-03-06T01:02:01;6.50;99.90
7576;DHT22;3829;50.798;4.358;2024-03-06T01:04:26;6.50;99.90
7576;DHT22;3829;50.798;4.358;2024-03-06T01:06:52;6.40;99.90
7576;DHT22;3829;50.798;4.358;2024-03-06T01:09:17;6.40;99.90
7576;DHT22;3829;50.798;4.358;2024-03-06T01:11:43;6.30;99.90
7576;DHT22;3829;50.798;4.358;2024-03-06T01:14:08;6.20;99.90
7576;DHT22;3829;50.798;4.358;2024-03-06T01:16:34;6.20;99.90
7576;DHT22;3829;50.798;4.358;2024-03-06T01:19:00;6.20;99.90
7576;DHT22;3829;50.798;4.358;2024-03-06T01:21:25;6.10;99.90
7576;DHT22;3829;50.798;4.358;2024-03-06T01:23:51;6.10;99.90
7576;DHT22;3829;50.798;4.358;2024-03-06T01:26:16;6.00;99.90
7576;DHT22;3829;50.798;4.358;2024-03-06T01:28:42;6.00;99.90
7576;DHT22;3829;50.798;4.358;2024-03-06T01:31:07;5.90;99.90
7576;DHT22;3829;50.798;4.358;2024-03-06T01:33:33;5.90;99.90
7576;DHT22;3829;50.798;4.358;2024-03-06T01:35:58;5.90;99.90
7576;DHT22;3829;50.798;4.358;2024-03-06T01:38:24;5.90;99.90
7576;DHT22;3829;50.798;4.358;2024-03-06T01:40:49;5.80;99.90
7576;DHT22;3829;50.798;4.358;2024-03-06T01:43:25;5.70;99.90
7576;DHT22;3829;50.798;4.358;2024-03-06T01:45:52;5.60;99.90
7576;DHT22;3829;50.798;4.358;2024-03-06T01:48:21;5.50;99.90
7576;DHT22;3829;50.798;4.358;2024-03-06T01:50:48;5.50;99.90
7576;DHT22;3829;50.798;4.358;2024-03-06T01:53:16;5.40;99.90
7576;DHT22;3829;50.798;4.358;2024-03-06T01:55:43;5.40;99.90
7576;DHT22;3829;50.798;4.358;2024-03-06T01:58:08;5.50;99.90
7576;DHT22;3829;50.798;4.358;2024-03-06T02:00:35;5.40;99.90
7576;DHT22;3829;50.798;4.358;2024-03-06T02:03:01;5.30;99.90
7576;DHT22;3829;50.798;4.358;2024-03-06T02:05:28;5.20;99.90
7576;DHT22;3829;50.798;4.358;2024-03-06T02:07:58;5.30;99.90
7576;DHT22;3829;50.798;4.358;2024-03-06T02:10:26;5.30;99.90
7576;DHT22;3829;50.798;4.358;2024-03-06T02:12:53;5.30;99.90
7576;DHT22;3829;50.798;4.358;2024-03-06T02:15:18;5.40;99.90
7576;DHT22;3829;50.798;4.358;2024-03-06T02:17:44;5.20;99.90
7576;DHT22;3829;50.798;4.358;2024-03-06T02:20:11;5.10;99.90
7576;DHT22;3829;50.798;4.358;2024-03-06T02:22:40;5.20;99.90
7576;DHT22;3829;50.798;4.358;2024-03-06T02:25:06;5.00;99.90
7576;DHT22;3829;50.798;4.358;2024-03-06T02:27:32;5.10;99.90
7576;DHT22;3829;50.798;4.358;2024-03-06T02:29:58;5.10;99.90
7576;DHT22;3829;50.798;4.358;2024-03-06T02:32:24;5.00;99.90
7576;DHT22;3829;50.798;4.358;2024-03-06T02:34:50;4.90;99.90
7576;DHT22;3829;50.798;4.358;2024-03-06T02:37:16;5.00;99.90
7576;DHT22;3829;50.798;4.358;2024-03-06T02:39:42;5.20;99.90
7576;DHT22;3829;50.798;4.358;2024-03-06T02:42:07;5.00;99.90
7576;DHT22;3829;50.798;4.358;2024-03-06T02:44:33;5.00;99.90
7576;DHT22;3829;50.798;4.358;2024-03-06T02:46:59;5.10;99.90
7576;DHT22;3829;50.798;4.358;2024-03-06T02:49:24;4.90;99.90
7576;DHT22;3829;50.798;4.358;2024-03-06T02:51:50;5.00;99.90
7576;DHT22;3829;50.798;4.358;2024-03-06T02:54:16;4.90;99.90
7576;DHT22;3829;50.798;4.358;2024-03-06T02:56:41;4.90;99.90
7576;DHT22;3829;50.798;4.358;2024-03-06T02:59:07;5.10;99.90
7576;DHT22;3829;50.798;4.358;2024-03-06T03:01:32;5.00;99.90
7576;DHT22;3829;50.798;4.358;2024-03-06T03:03:58;5.10;99.90
7576;DHT22;3829;50.798;4.358;2024-03-06T03:06:24;5.00;99.90
7576;DHT22;3829;50.798;4.358;2024-03-06T03:08:50;5.00;99.90
7576;DHT22;3829;50.798;4.358;2024-03-06T03:11:16;5.10;99.90
7576;DHT22;3829;50.798;4.358;2024-03-06T03:13:42;5.20;99.90
7576;DHT22;3829;50.798;4.358;2024-03-06T03:16:15;5.10;99.90
7576;DHT22;3829;50.798;4.358;2024-03-06T03:18:43;5.10;99.90
7576;DHT22;3829;50.798;4.358;2024-03-06T03:21:09;5.00;99.90
7576;DHT22;3829;50.798;4.358;2024-03-06T03:23:36;5.00;99.90
7576;DHT22;3829;50.798;4.358;2024-03-06T03:26:01;5.10;99.90
7576;DHT22;3829;50.798;4.358;2024-03-06T03:28:29;5.10;99.90
7576;DHT22;3829;50.798;4.358;2024-03-06T03:30:55;5.20;99.90
7576;DHT22;3829;50.798;4.358;2024-03-06T03:33:22;5.10;99.90
7576;DHT22;3829;50.798;4.358;2024-03-06T03:35:48;5.00;99.90
7576;DHT22;3829;50.798;4.358;2024-03-06T03:38:13;4.90;99.90
7576;DHT22;3829;50.798;4.358;2024-03-06T03:40:39;5.00;99.90
7576;DHT22;3829;50.798;4.358;2024-03-06T03:43:05;5.00;99.90
7576;DHT22;3829;50.798;4.358;2024-03-06T03:45:32;5.10;99.90
7576;DHT22;3829;50.798;4.358;2024-03-06T03:48:03;5.10;99.90
7576;DHT22;3829;50.798;4.358;2024-03-06T03:50:29;5.10;99.90
7576;DHT22;3829;50.798;4.358;2024-03-06T03:52:55;5.10;99.90
7576;DHT22;3829;50.798;4.358;2024-03-06T03:55:23;5.20;99.90
7576;DHT22;3829;50.798;4.358;2024-03-06T03:57:49;5.10;99.90
7576;DHT22;3829;50.798;4.358;2024-03-06T04:00:15;5.10;99.90
7576;DHT22;3829;50.798;4.358;2024-03-06T04:02:40;5.10;99.90
7576;DHT22;3829;50.798;4.358;2024-03-06T04:05:06;5.10;99.90
7576;DHT22;3829;50.798;4.358;2024-03-06T04:07:32;5.20;99.90
7576;DHT22;3829;50.798;4.358;2024-03-06T04:09:57;5.20;99.90
7576;DHT22;3829;50.798;4.358;2024-03-06T04:12:24;5.20;99.90
7576;DHT22;3829;50.798;4.358;2024-03-06T04:14:50;5.20;99.90
7576;DHT22;3829;50.798;4.358;2024-03-06T04:17:15;5.20;99.90
7576;DHT22;3829;50.798;4.358;2024-03-06T04:19:41;5.10;99.90
7576;DHT22;3829;50.798;4.358;2024-03-06T04:22:06;5.20;99.90
7576;DHT22;3829;50.798;4.358;2024-03-06T04:24:32;5.20;99.90
7576;DHT22;3829;50.798;4.358;2024-03-06T04:26:57;5.10;99.90
7576;DHT22;3829;50.798;4.358;2024-03-06T04:29:23;5.20;99.90
7576;DHT22;3829;50.798;4.358;2024-03-06T04:31:48;5.10;99.90
7576;DHT22;3829;50.798;4.358;2024-03-06T04:34:14;5.10;99.90
7576;DHT22;3829;50.798;4.358;2024-03-06T04:36:40;5.10;99.90
7576;DHT22;3829;50.798;4.358;2024-03-06T04:39:05;5.20;99.90
7576;DHT22;3829;50.798;4.358;2024-03-06T04:41:33;5.20;99.90
7576;DHT22;3829;50.798;4.358;2024-03-06T04:43:59;5.10;99.90
7576;DHT22;3829;50.798;4.358;2024-03-06T04:46:26;5.20;99.90
7576;DHT22;3829;50.798;4.358;2024-03-06T04:48:53;5.20;99.90
7576;DHT22;3829;50.798;4.358;2024-03-06T04:51:18;5.20;99.90
7576;DHT22;3829;50.798;4.358;2024-03-06T04:53:45;5.20;99.90
7576;DHT22;3829;50.798;4.358;2024-03-06T04:56:11;5.20;99.90
7576;DHT22;3829;50.798;4.358;2024-03-06T04:58:36;5.10;99.90
7576;DHT22;3829;50.798;4.358;2024-03-06T05:01:02;5.30;99.90
7576;DHT22;3829;50.798;4.358;2024-03-06T05:03:29;5.20;99.90
7576;DHT22;3829;50.798;4.358;2024-03-06T05:05:55;5.20;99.90
7576;DHT22;3829;50.798;4.358;2024-03-06T05:08:21;5.00;99.90
7576;DHT22;3829;50.798;4.358;2024-03-06T05:10:46;5.10;99.90
7576;DHT22;3829;50.798;4.358;2024-03-06T05:13:12;5.00;99.90
7576;DHT22;3829;50.798;4.358;2024-03-06T05:15:37;5.10;99.90
7576;DHT22;3829;50.798;4.358;2024-03-06T05:18:05;5.20;99.90
7576;DHT22;3829;50.798;4.358;2024-03-06T05:20:31;5.20;99.90
7576;DHT22;3829;50.798;4.358;2024-03-06T05:22:57;5.10;99.90
7576;DHT22;3829;50.798;4.358;2024-03-06T05:25:22;5.00;99.90
7576;DHT22;3829;50.798;4.358;2024-03-06T05:27:48;5.10;99.90
7576;DHT22;3829;50.798;4.358;2024-03-06T05:30:13;5.10;99.90
7576;DHT22;3829;50.798;4.358;2024-03-06T05:32:40;5.20;99.90
7576;DHT22;3829;50.798;4.358;2024-03-06T05:35:07;5.20;99.90
7576;DHT22;3829;50.798;4.358;2024-03-06T05:37:35;5.20;99.90
7576;DHT22;3829;50.798;4.358;2024-03-06T05:40:01;5.20;99.90
7576;DHT22;3829;50.798;4.358;2024-03-06T05:42:30;5.20;99.90
7576;DHT22;3829;50.798;4.358;2024-03-06T05:44:56;5.10;99.90
7576;DHT22;3829;50.798;4.358;2024-03-06T05:47:26;5.00;99.90
7576;DHT22;3829;50.798;4.358;2024-03-06T05:49:51;5.00;99.90
7576;DHT22;3829;50.798;4.358;2024-03-06T05:52:17;4.90;99.90
7576;DHT22;3829;50.798;4.358;2024-03-06T05:54:43;5.00;99.90
7576;DHT22;3829;50.798;4.358;2024-03-06T05:57:08;5.00;99.90
7576;DHT22;3829;50.798;4.358;2024-03-06T05:59:34;5.10;99.90
7576;DHT22;3829;50.798;4.358;2024-03-06T06:01:59;5.00;99.90
7576;DHT22;3829;50.798;4.358;2024-03-06T06:04:25;5.00;99.90
7576;DHT22;3829;50.798;4.358;2024-03-06T06:06:52;4.90;99.90
7576;DHT22;3829;50.798;4.358;2024-03-06T06:09:17;4.70;99.90
7576;DHT22;3829;50.798;4.358;2024-03-06T06:11:44;4.80;99.90
7576;DHT22;3829;50.798;4.358;2024-03-06T06:14:10;5.00;99.90
7576;DHT22;3829;50.798;4.358;2024-03-06T06:16:37;4.90;99.90
7576;DHT22;3829;50.798;4.358;2024-03-06T06:19:03;4.90;99.90
7576;DHT22;3829;50.798;4.358;2024-03-06T06:21:30;4.80;99.90
7576;DHT22;3829;50.798;4.358;2024-03-06T06:23:55;4.70;99.90
7576;DHT22;3829;50.798;4.358;2024-03-06T06:26:21;4.80;99.90
7576;DHT22;3829;50.798;4.358;2024-03-06T06:28:47;5.00;99.90
7576;DHT22;3829;50.798;4.358;2024-03-06T06:31:12;5.00;99.90
7576;DHT22;3829;50.798;4.358;2024-03-06T06:33:38;4.80;99.90
7576;DHT22;3829;50.798;4.358;2024-03-06T06:36:04;4.80;99.90
7576;DHT22;3829;50.798;4.358;2024-03-06T06:38:29;4.90;99.90
7576;DHT22;3829;50.798;4.358;2024-03-06T06:40:55;5.10;99.90
7576;DHT22;3829;50.798;4.358;2024-03-06T06:43:21;5.00;99.90
7576;DHT22;3829;50.798;4.358;2024-03-06T06:45:46;4.90;99.90
7576;DHT22;3829;50.798;4.358;2024-03-06T06:48:12;4.90;99.90
7576;DHT22;3829;50.798;4.358;2024-03-06T06:50:38;5.10;99.90
7576;DHT22;3829;50.798;4.358;2024-03-06T06:53:04;5.10;99.90
7576;DHT22;3829;50.798;4.358;2024-03-06T06:55:30;5.00;99.90
7576;DHT22;3829;50.798;4.358;2024-03-06T06:57:56;5.10;99.90
7576;DHT22;3829;50.798;4.358;2024-03-06T07:00:22;5.20;99.90
7576;DHT22;3829;50.798;4.358;2024-03-06T07:02:48;5.20;99.90
7576;DHT22;3829;50.798;4.358;2024-03-06T07:05:14;5.30;99.90
7576;DHT22;3829;50.798;4.358;2024-03-06T07:07:40;5.40;99.90
7576;DHT22;3829;50.798;4.358;2024-03-06T07:10:06;5.40;99.90
7576;DHT22;3829;50.798;4.358;2024-03-06T07:12:32;5.50;99.90
7576;DHT22;3829;50.798;4.358;2024-03-06T07:14:58;5.60;99.90
7576;DHT22;3829;50.798;4.358;2024-03-06T07:17:24;5.60;99.90
7576;DHT22;3829;50.798;4.358;2024-03-06T07:19:50;5.60;99.90
7576;DHT22;3829;50.798;4.358;2024-03-06T07:22:18;5.70;99.90
7576;DHT22;3829;50.798;4.358;2024-03-06T07:24:43;5.70;99.90
7576;DHT22;3829;50.798;4.358;2024-03-06T07:27:09;5.70;99.90
7576;DHT22;3829;50.798;4.358;2024-03-06T07:29:35;5.80;99.90
7576;DHT22;3829;50.798;4.358;2024-03-06T07:32:01;5.90;99.90
7576;DHT22;3829;50.798;4.358;2024-03-06T07:34:27;5.90;99.90
7576;DHT22;3829;50.798;4.358;2024-03-06T07:36:53;6.00;99.90
7576;DHT22;3829;50.798;4.358;2024-03-06T07:39:20;6.10;99.90
7576;DHT22;3829;50.798;4.358;2024-03-06T07:41:45;6.20;99.90
7576;DHT22;3829;50.798;4.358;2024-03-06T07:44:11;6.20;99.90
7576;DHT22;3829;50.798;4.358;2024-03-06T07:46:37;6.30;99.90
7576;DHT22;3829;50.798;4.358;2024-03-06T07:49:03;6.40;99.90
7576;DHT22;3829;50.798;4.358;2024-03-06T07:51:29;6.30;99.90
7576;DHT22;3829;50.798;4.358;2024-03-06T07:53:55;6.40;99.90
7576;DHT22;3829;50.798;4.358;2024-03-06T07:56:23;6.40;99.90
7576;DHT22;3829;50.798;4.358;2024-03-06T07:58:48;6.60;99.90
7576;DHT22;3829;50.798;4.358;2024-03-06T08:01:15;6.70;99.90
7576;DHT22;3829;50.798;4.358;2024-03-06T08:03:41;6.90;99.90
7576;DHT22;3829;50.798;4.358;2024-03-06T08:06:08;6.90;99.90
7576;DHT22;3829;50.798;4.358;2024-03-06T08:08:35;7.10;99.90
7576;DHT22;3829;50.798;4.358;2024-03-06T08:11:01;7.30;99.90
7576;DHT22;3829;50.798;4.358;2024-03-06T08:13:27;7.40;99.90
7576;DHT22;3829;50.798;4.358;2024-03-06T08:15:53;7.50;99.90
7576;DHT22;3829;50.798;4.358;2024-03-06T08:18:18;7.50;99.90
7576;DHT22;3829;50.798;4.358;2024-03-06T08:20:44;7.80;99.90
7576;DHT22;3829;50.798;4.358;2024-03-06T08:23:10;7.80;99.90
7576;DHT22;3829;50.798;4.358;2024-03-06T08:25:35;7.90;99.90
7576;DHT22;3829;50.798;4.358;2024-03-06T08:28:01;8.00;99.90
7576;DHT22;3829;50.798;4.358;2024-03-06T08:30:28;8.00;99.90
7576;DHT22;3829;50.798;4.358;2024-03-06T08:32:56;8.00;99.90
7576;DHT22;3829;50.798;4.358;2024-03-06T08:35:21;8.20;99.90
7576;DHT22;3829;50.798;4.358;2024-03-06T08:37:49;8.20;99.90
7576;DHT22;3829;50.798;4.358;2024-03-06T08:40:16;8.30;99.90
7576;DHT22;3829;50.798;4.358;2024-03-06T08:42:44;8.30;99.90
7576;DHT22;3829;50.798;4.358;2024-03-06T08:45:11;8.30;99.90
7576;DHT22;3829;50.798;4.358;2024-03-06T08:47:37;8.30;99.90
7576;DHT22;3829;50.798;4.358;2024-03-06T08:50:03;8.50;99.90
7576;DHT22;3829;50.798;4.358;2024-03-06T08:52:29;8.40;99.90
7576;DHT22;3829;50.798;4.358;2024-03-06T08:54:56;8.50;99.90
7576;DHT22;3829;50.798;4.358;2024-03-06T08:57:22;8.60;99.90
7576;DHT22;3829;50.798;4.358;2024-03-06T08:59:48;8.70;99.90
7576;DHT22;3829;50.798;4.358;2024-03-06T09:02:15;8.70;99.90
7576;DHT22;3829;50.798;4.358;2024-03-06T09:04:42;8.80;99.90
7576;DHT22;3829;50.798;4.358;2024-03-06T09:07:08;8.90;99.90
7576;DHT22;3829;50.798;4.358;2024-03-06T09:09:35;9.00;99.90
7576;DHT22;3829;50.798;4.358;2024-03-06T09:12:02;8.80;99.90
7576;DHT22;3829;50.798;4.358;2024-03-06T09:14:30;8.90;99.90
7576;DHT22;3829;50.798;4.358;2024-03-06T09:16:55;8.90;99.90
7576;DHT22;3829;50.798;4.358;2024-03-06T09:19:21;9.10;99.90
7576;DHT22;3829;50.798;4.358;2024-03-06T09:21:47;9.10;99.90
7576;DHT22;3829;50.798;4.358;2024-03-06T09:24:13;9.20;99.90
7576;DHT22;3829;50.798;4.358;2024-03-06T09:26:39;9.30;99.90
7576;DHT22;3829;50.798;4.358;2024-03-06T09:29:05;9.30;99.90
7576;DHT22;3829;50.798;4.358;2024-03-06T09:31:30;9.20;99.90
7576;DHT22;3829;50.798;4.358;2024-03-06T09:33:56;9.30;99.90
7576;DHT22;3829;50.798;4.358;2024-03-06T09:36:21;9.40;99.90
7576;DHT22;3829;50.798;4.358;2024-03-06T09:38:47;9.50;99.90
7576;DHT22;3829;50.798;4.358;2024-03-06T09:41:13;9.60;99.90
7576;DHT22;3829;50.798;4.358;2024-03-06T09:43:38;9.60;99.90
7576;DHT22;3829;50.798;4.358;2024-03-06T09:46:06;9.70;99.90
7576;DHT22;3829;50.798;4.358;2024-03-06T09:48:33;9.90;99.90
7576;DHT22;3829;50.798;4.358;2024-03-06T09:51:01;10.00;99.90
7576;DHT22;3829;50.798;4.358;2024-03-06T09:53:28;10.00;99.90
7576;DHT22;3829;50.798;4.358;2024-03-06T09:55:56;10.10;99.90
7576;DHT22;3829;50.798;4.358;2024-03-06T09:58:23;10.10;99.90
7576;DHT22;3829;50.798;4.358;2024-03-06T10:00:50;10.20;99.90
7576;DHT22;3829;50.798;4.358;2024-03-06T10:03:15;10.20;99.90
7576;DHT22;3829;50.798;4.358;2024-03-06T10:05:41;10.40;99.90
7576;DHT22;3829;50.798;4.358;2024-03-06T10:08:11;10.50;99.90
7576;DHT22;3829;50.798;4.358;2024-03-06T10:10:37;10.40;99.90
7576;DHT22;3829;50.798;4.358;2024-03-06T10:13:03;10.40;99.90
7576;DHT22;3829;50.798;4.358;2024-03-06T10:15:29;10.50;99.90
7576;DHT22;3829;50.798;4.358;2024-03-06T10:18:13;10.50;99.90
7576;DHT22;3829;50.798;4.358;2024-03-06T10:20:40;10.40;99.90
7576;DHT22;3829;50.798;4.358;2024-03-06T10:23:08;10.30;99.90
7576;DHT22;3829;50.798;4.358;2024-03-06T10:25:34;10.20;99.90
7576;DHT22;3829;50.798;4.358;2024-03-06T10:28:09;10.40;99.90
7576;DHT22;3829;50.798;4.358;2024-03-06T10:30:36;10.40;99.90
7576;DHT22;3829;50.798;4.358;2024-03-06T10:33:03;10.40;99.90
7576;DHT22;3829;50.798;4.358;2024-03-06T10:35:30;10.40;99.90
7576;DHT22;3829;50.798;4.358;2024-03-06T10:37:55;10.60;99.90
7576;DHT22;3829;50.798;4.358;2024-03-06T10:40:23;10.60;99.90
7576;DHT22;3829;50.798;4.358;2024-03-06T10:42:48;10.70;99.90
7576;DHT22;3829;50.798;4.358;2024-03-06T10:45:14;10.90;99.90
7576;DHT22;3829;50.798;4.358;2024-03-06T10:47:45;10.80;99.90
7576;DHT22;3829;50.798;4.358;2024-03-06T10:50:11;10.70;99.90
7576;DHT22;3829;50.798;4.358;2024-03-06T10:52:38;10.50;99.90
7576;DHT22;3829;50.798;4.358;2024-03-06T10:55:05;10.60;99.90
7576;DHT22;3829;50.798;4.358;2024-03-06T10:57:32;10.50;99.90
7576;DHT22;3829;50.798;4.358;2024-03-06T10:59:59;10.80;99.90
7576;DHT22;3829;50.798;4.358;2024-03-06T11:02:27;11.00;99.90
7576;DHT22;3829;50.798;4.358;2024-03-06T11:04:53;11.30;99.90
7576;DHT22;3829;50.798;4.358;2024-03-06T11:07:20;11.30;99.90
7576;DHT22;3829;50.798;4.358;2024-03-06T11:09:46;11.40;99.90
7576;DHT22;3829;50.798;4.358;2024-03-06T11:12:33;11.80;99.90
7576;DHT22;3829;50.798;4.358;2024-03-06T11:14:58;12.20;99.90
7576;DHT22;3829;50.798;4.358;2024-03-06T11:17:25;12.20;99.90
7576;DHT22;3829;50.798;4.358;2024-03-06T11:20:12;12.40;99.90
7576;DHT22;3829;50.798;4.358;2024-03-06T11:23:02;12.50;99.90
7576;DHT22;3829;50.798;4.358;2024-03-06T11:28:34;12.20;99.90
7576;DHT22;3829;50.798;4.358;2024-03-06T11:31:03;12.30;99.90
7576;DHT22;3829;50.798;4.358;2024-03-06T11:33:41;12.20;99.90
7576;DHT22;3829;50.798;4.358;2024-03-06T11:36:20;12.30;99.90
7576;DHT22;3829;50.798;4.358;2024-03-06T11:38:51;12.70;99.90
7576;DHT22;3829;50.798;4.358;2024-03-06T11:41:21;13.00;99.90
7576;DHT22;3829;50.798;4.358;2024-03-06T11:43:48;12.90;99.90
7576;DHT22;3829;50.798;4.358;2024-03-06T11:46:15;12.70;99.90
7576;DHT22;3829;50.798;4.358;2024-03-06T11:48:42;12.80;99.90
7576;DHT22;3829;50.798;4.358;2024-03-06T11:51:08;12.80;99.90
7576;DHT22;3829;50.798;4.358;2024-03-06T11:53:34;12.80;99.90
7576;DHT22;3829;50.798;4.358;2024-03-06T11:56:01;12.80;99.90
7576;DHT22;3829;50.798;4.358;2024-03-06T11:58:27;12.70;99.90
7576;DHT22;3829;50.798;4.358;2024-03-06T12:00:54;12.70;99.90
7576;DHT22;3829;50.798;4.358;2024-03-06T12:03:20;12.70;99.90
7576;DHT22;3829;50.798;4.358;2024-03-06T12:05:50;13.10;99.90
7576;DHT22;3829;50.798;4.358;2024-03-06T12:08:17;13.40;99.90
7576;DHT22;3829;50.798;4.358;2024-03-06T12:10:43;13.60;99.90
7576;DHT22;3829;50.798;4.358;2024-03-06T12:13:10;13.60;99.90
7576;DHT22;3829;50.798;4.358;2024-03-06T12:15:36;13.10;99.90
7576;DHT22;3829;50.798;4.358;2024-03-06T12:18:02;13.00;99.90
7576;DHT22;3829;50.798;4.358;2024-03-06T12:20:27;13.30;99.90
7576;DHT22;3829;50.798;4.358;2024-03-06T12:22:53;13.40;99.90
7576;DHT22;3829;50.798;4.358;2024-03-06T12:25:22;13.40;99.90
7576;DHT22;3829;50.798;4.358;2024-03-06T12:27:47;13.70;99.90
7576;DHT22;3829;50.798;4.358;2024-03-06T12:30:17;13.20;99.90
7576;DHT22;3829;50.798;4.358;2024-03-06T12:32:44;13.20;99.90
7576;DHT22;3829;50.798;4.358;2024-03-06T12:35:10;13.70;99.90
7576;DHT22;3829;50.798;4.358;2024-03-06T12:37:35;14.10;99.90
7576;DHT22;3829;50.798;4.358;2024-03-06T12:40:02;14.40;99.90
7576;DHT22;3829;50.798;4.358;2024-03-06T12:42:30;14.70;99.90
7576;DHT22;3829;50.798;4.358;2024-03-06T12:44:55;14.40;99.90
7576;DHT22;3829;50.798;4.358;2024-03-06T12:47:21;14.40;99.90
7576;DHT22;3829;50.798;4.358;2024-03-06T12:49:46;14.30;99.90
7576;DHT22;3829;50.798;4.358;2024-03-06T12:52:12;13.80;99.90
7576;DHT22;3829;50.798;4.358;2024-03-06T12:54:38;13.60;99.90
7576;DHT22;3829;50.798;4.358;2024-03-06T12:57:03;13.30;99.90
7576;DHT22;3829;50.798;4.358;2024-03-06T12:59:29;13.20;99.90
7576;DHT22;3829;50.798;4.358;2024-03-06T13:01:55;13.50;99.90
7576;DHT22;3829;50.798;4.358;2024-03-06T13:04:20;13.80;99.90
7576;DHT22;3829;50.798;4.358;2024-03-06T13:06:49;14.00;99.90
7576;DHT22;3829;50.798;4.358;2024-03-06T13:09:15;14.50;99.90
7576;DHT22;3829;50.798;4.358;2024-03-06T13:11:41;14.20;99.90
7576;DHT22;3829;50.798;4.358;2024-03-06T13:14:07;14.20;99.90
7576;DHT22;3829;50.798;4.358;2024-03-06T13:16:35;14.40;99.90
7576;DHT22;3829;50.798;4.358;2024-03-06T13:19:01;14.50;99.90
7576;DHT22;3829;50.798;4.358;2024-03-06T13:21:28;14.40;99.90
7576;DHT22;3829;50.798;4.358;2024-03-06T13:23:54;14.20;99.90
7576;DHT22;3829;50.798;4.358;2024-03-06T13:26:20;13.90;99.90
7576;DHT22;3829;50.798;4.358;2024-03-06T13:28:46;13.90;99.90
7576;DHT22;3829;50.798;4.358;2024-03-06T13:31:12;13.60;99.90
7576;DHT22;3829;50.798;4.358;2024-03-06T13:33:37;13.70;99.90
7576;DHT22;3829;50.798;4.358;2024-03-06T13:36:03;13.50;99.90
7576;DHT22;3829;50.798;4.358;2024-03-06T13:38:29;13.50;99.90
7576;DHT22;3829;50.798;4.358;2024-03-06T13:40:55;13.40;99.90
7576;DHT22;3829;50.798;4.358;2024-03-06T13:43:20;13.40;99.90
7576;DHT22;3829;50.798;4.358;2024-03-06T13:45:50;13.10;99.90
7576;DHT22;3829;50.798;4.358;2024-03-06T13:48:16;12.80;99.90
7576;DHT22;3829;50.798;4.358;2024-03-06T13:50:43;13.00;99.90
7576;DHT22;3829;50.798;4.358;2024-03-06T13:53:10;12.90;99.90
7576;DHT22;3829;50.798;4.358;2024-03-06T13:55:35;12.80;99.90
7576;DHT22;3829;50.798;4.358;2024-03-06T13:58:01;12.80;99.90
7576;DHT22;3829;50.798;4.358;2024-03-06T14:00:27;12.80;99.90
7576;DHT22;3829;50.798;4.358;2024-03-06T14:02:52;12.70;99.90
7576;DHT22;3829;50.798;4.358;2024-03-06T14:05:18;12.90;99.90
7576;DHT22;3829;50.798;4.358;2024-03-06T14:07:50;13.10;99.90
7576;DHT22;3829;50.798;4.358;2024-03-06T14:10:16;13.10;99.90
7576;DHT22;3829;50.798;4.358;2024-03-06T14:12:44;13.30;99.90
7576;DHT22;3829;50.798;4.358;2024-03-06T14:15:10;13.50;99.90
7576;DHT22;3829;50.798;4.358;2024-03-06T14:17:41;13.30;99.90
7576;DHT22;3829;50.798;4.358;2024-03-06T14:20:07;13.10;99.90
7576;DHT22;3829;50.798;4.358;2024-03-06T14:22:33;12.70;99.90
7576;DHT22;3829;50.798;4.358;2024-03-06T14:24:59;12.70;99.90
7576;DHT22;3829;50.798;4.358;2024-03-06T14:27:24;12.70;99.90
7576;DHT22;3829;50.798;4.358;2024-03-06T14:29:50;12.60;99.90
7576;DHT22;3829;50.798;4.358;2024-03-06T14:32:18;12.70;99.90
7576;DHT22;3829;50.798;4.358;2024-03-06T14:34:44;12.60;99.90
7576;DHT22;3829;50.798;4.358;2024-03-06T14:37:10;12.50;99.90
7576;DHT22;3829;50.798;4.358;2024-03-06T14:39:36;12.40;99.90
7576;DHT22;3829;50.798;4.358;2024-03-06T14:42:01;12.50;99.90
7576;DHT22;3829;50.798;4.358;2024-03-06T14:44:27;12.80;99.90
7576;DHT22;3829;50.798;4.358;2024-03-06T14:46:52;12.90;99.90
7576;DHT22;3829;50.798;4.358;2024-03-06T14:49:18;12.90;99.90
7576;DHT22;3829;50.798;4.358;2024-03-06T14:51:44;13.00;99.90
7576;DHT22;3829;50.798;4.358;2024-03-06T14:54:09;12.80;99.90
7576;DHT22;3829;50.798;4.358;2024-03-06T14:56:35;12.80;99.90
7576;DHT22;3829;50.798;4.358;2024-03-06T14:59:01;13.20;99.90
7576;DHT22;3829;50.798;4.358;2024-03-06T15:01:26;14.20;99.90
7576;DHT22;3829;50.798;4.358;2024-03-06T15:03:53;15.00;99.90
7576;DHT22;3829;50.798;4.358;2024-03-06T15:06:19;15.60;99.90
7576;DHT22;3829;50.798;4.358;2024-03-06T15:08:45;16.00;99.90
7576;DHT22;3829;50.798;4.358;2024-03-06T15:11:11;15.30;99.90
7576;DHT22;3829;50.798;4.358;2024-03-06T15:13:37;15.20;99.90
7576;DHT22;3829;50.798;4.358;2024-03-06T15:16:02;14.90;99.90
7576;DHT22;3829;50.798;4.358;2024-03-06T15:18:29;15.30;99.90
7576;DHT22;3829;50.798;4.358;2024-03-06T15:20:55;15.40;99.90
7576;DHT22;3829;50.798;4.358;2024-03-06T15:23:21;15.00;99.90
7576;DHT22;3829;50.798;4.358;2024-03-06T15:25:46;14.90;99.90
7576;DHT22;3829;50.798;4.358;2024-03-06T15:28:12;14.40;99.90
7576;DHT22;3829;50.798;4.358;2024-03-06T15:30:38;14.40;99.90
7576;DHT22;3829;50.798;4.358;2024-03-06T15:33:05;14.60;99.90
7576;DHT22;3829;50.798;4.358;2024-03-06T15:35:31;14.40;99.90
7576;DHT22;3829;50.798;4.358;2024-03-06T15:37:56;14.20;99.90
7576;DHT22;3829;50.798;4.358;2024-03-06T15:40:22;13.60;99.90
7576;DHT22;3829;50.798;4.358;2024-03-06T15:42:48;13.40;99.90
7576;DHT22;3829;50.798;4.358;2024-03-06T15:45:14;13.20;99.90
7576;DHT22;3829;50.798;4.358;2024-03-06T15:47:40;13.40;99.90
7576;DHT22;3829;50.798;4.358;2024-03-06T15:50:10;13.50;99.90
7576;DHT22;3829;50.798;4.358;2024-03-06T15:52:37;13.50;99.90
7576;DHT22;3829;50.798;4.358;2024-03-06T15:55:05;13.40;99.90
7576;DHT22;3829;50.798;4.358;2024-03-06T15:57:31;13.30;99.90
7576;DHT22;3829;50.798;4.358;2024-03-06T15:59:57;13.40;99.90
7576;DHT22;3829;50.798;4.358;2024-03-06T16:02:22;13.30;99.90
7576;DHT22;3829;50.798;4.358;2024-03-06T16:04:49;13.30;99.90
7576;DHT22;3829;50.798;4.358;2024-03-06T16:07:15;13.30;99.90
7576;DHT22;3829;50.798;4.358;2024-03-06T16:09:40;13.30;99.90